createdAt,value
2022-12-03T00:02:03.046Z,1.56
2022-12-03T00:04:33.339Z,1.62
2022-12-03T00:07:03.588Z,1.68
2022-12-03T00:09:37.077Z,1.71
2022-12-03T00:12:07.477Z,1.62
2022-12-03T00:14:41.390Z,1.57
2022-12-03T00:17:14.787Z,1.64
2022-12-03T00:19:44.843Z,1.61
2022-12-03T00:22:15.465Z,1.63
2022-12-03T00:24:48.187Z,1.61
2022-12-03T00:27:20.200Z,1.63
2022-12-03T00:29:50.369Z,1.66
2022-12-03T00:32:20.425Z,1.65
2022-12-03T00:34:50.661Z,1.63
2022-12-03T00:37:21.344Z,1.66
2022-12-03T00:39:55.351Z,1.64
2022-12-03T00:42:25.642Z,1.62
2022-12-03T00:44:56.119Z,1.62
2022-12-03T00:47:26.386Z,1.64
2022-12-03T00:49:56.896Z,1.70
2022-12-03T00:52:27.290Z,1.67
2022-12-03T00:54:59.944Z,1.65
2022-12-03T00:57:31.287Z,1.61
2022-12-03T01:00:01.354Z,1.62
2022-12-03T01:02:31.435Z,1.62
2022-12-03T01:05:01.719Z,1.62
2022-12-03T01:07:32.024Z,1.66
2022-12-03T01:10:04.818Z,1.61
2022-12-03T01:12:35.020Z,1.64
2022-12-03T01:15:05.207Z,1.66
2022-12-03T01:17:35.435Z,1.64
2022-12-03T01:20:05.911Z,1.67
2022-12-03T01:22:35.961Z,1.70
2022-12-03T01:25:09.832Z,1.72
2022-12-03T01:27:40.064Z,1.71
2022-12-03T01:30:12.231Z,1.72
2022-12-03T01:32:39.645Z,1.76
2022-12-03T01:35:10.209Z,1.71
2022-12-03T01:37:40.918Z,1.75
2022-12-03T01:40:18.858Z,1.80
2022-12-03T01:42:48.963Z,1.80
2022-12-03T01:45:26.427Z,1.77
2022-12-03T01:47:56.495Z,1.81
2022-12-03T01:50:33.397Z,1.81
2022-12-03T01:53:06.628Z,1.75
2022-12-03T01:55:40.223Z,1.77
2022-12-03T01:58:13.630Z,1.74
2022-12-03T02:00:44.346Z,1.73
2022-12-03T02:03:18.483Z,1.74
2022-12-03T02:05:48.706Z,1.83
2022-12-03T02:08:32.882Z,1.76
2022-12-03T02:11:07.414Z,1.73
2022-12-03T02:13:37.232Z,1.73
2022-12-03T02:16:08.036Z,1.77
2022-12-03T02:18:38.236Z,1.72
2022-12-03T02:21:16.565Z,1.80
2022-12-03T02:23:53.081Z,1.67
2022-12-03T02:26:26.333Z,1.70
2022-12-03T02:28:56.460Z,1.71
2022-12-03T02:31:27.148Z,1.66
2022-12-03T02:33:57.575Z,1.63
2022-12-03T02:36:27.819Z,1.58
2022-12-03T02:38:59.261Z,1.54
2022-12-03T02:41:44.853Z,1.49
2022-12-03T02:44:15.431Z,1.46
2022-12-03T02:46:45.982Z,1.56
2022-12-03T02:49:16.576Z,1.48
2022-12-03T02:51:46.679Z,1.50
2022-12-03T02:54:16.953Z,1.49
2022-12-03T02:56:49.584Z,1.49
2022-12-03T02:59:20.211Z,1.51
2022-12-03T03:01:50.755Z,1.39
2022-12-03T03:04:22.668Z,1.49
2022-12-03T03:06:52.831Z,1.51
2022-12-03T03:09:23.770Z,1.51
2022-12-03T03:11:57.162Z,1.47
2022-12-03T03:14:27.300Z,1.54
2022-12-03T03:16:58.542Z,1.45
2022-12-03T03:19:29.632Z,1.45
2022-12-03T03:22:00.324Z,1.43
2022-12-03T03:24:30.780Z,1.48
2022-12-03T03:27:03.743Z,1.43
2022-12-03T03:29:35.166Z,1.38
2022-12-03T03:32:06.116Z,1.43
2022-12-03T03:34:37.507Z,1.36
2022-12-03T03:37:07.690Z,1.40
2022-12-03T03:39:37.911Z,1.41
2022-12-03T03:42:10.779Z,1.37
2022-12-03T03:44:41.227Z,1.43
2022-12-03T03:47:11.393Z,1.43
2022-12-03T03:49:41.770Z,1.41
2022-12-03T03:52:13.506Z,1.42
2022-12-03T03:54:43.806Z,1.40
2022-12-03T03:57:16.636Z,1.43
2022-12-03T03:59:47.533Z,1.51
2022-12-03T04:02:22.776Z,1.32
2022-12-03T04:04:53.652Z,1.42
2022-12-03T04:07:23.850Z,1.41
2022-12-03T04:09:53.892Z,1.41
2022-12-03T04:12:53.788Z,1.32
2022-12-03T04:15:24.766Z,1.28
2022-12-03T04:18:07.318Z,1.30
2022-12-03T04:20:37.764Z,1.33
2022-12-03T04:23:05.492Z,1.37
2022-12-03T04:25:47.990Z,1.37
2022-12-03T04:28:33.349Z,1.30
2022-12-03T04:31:24.249Z,1.31
2022-12-03T04:34:07.056Z,1.36
2022-12-03T04:36:37.260Z,1.39
2022-12-03T04:39:07.633Z,1.41
2022-12-03T04:41:37.968Z,1.44
2022-12-03T04:44:23.223Z,1.45
2022-12-03T04:46:53.738Z,1.48
2022-12-03T04:49:24.142Z,1.40
2022-12-03T04:51:54.332Z,1.48
2022-12-03T04:54:26.099Z,1.48
2022-12-03T04:56:56.648Z,1.53
2022-12-03T04:59:29.490Z,1.53
2022-12-03T05:02:01.723Z,1.45
2022-12-03T05:04:32.442Z,1.43
2022-12-03T05:07:02.518Z,1.45
2022-12-03T05:09:32.786Z,1.46
2022-12-03T05:12:03.979Z,1.52
2022-12-03T05:14:36.923Z,1.52
2022-12-03T05:17:07.252Z,1.48
2022-12-03T05:19:49.635Z,1.46
2022-12-03T05:22:19.857Z,1.46
2022-12-03T05:24:50.034Z,1.53
2022-12-03T05:27:23.981Z,1.55
2022-12-03T05:29:57.171Z,1.48
2022-12-03T05:32:27.707Z,1.53
2022-12-03T05:34:57.956Z,1.53
2022-12-03T05:37:28.022Z,1.61
2022-12-03T05:39:58.302Z,1.55
2022-12-03T05:42:40.709Z,1.56
2022-12-03T05:45:15.026Z,1.58
2022-12-03T05:47:45.246Z,1.63
2022-12-03T05:50:15.923Z,1.57
2022-12-03T05:52:46.078Z,1.60
2022-12-03T05:55:21.405Z,1.60
2022-12-03T05:57:53.247Z,1.62
2022-12-03T06:00:29.208Z,1.53
2022-12-03T06:03:00.152Z,1.56
2022-12-03T06:05:30.721Z,1.52
2022-12-03T06:08:00.909Z,1.49
2022-12-03T06:10:32.702Z,1.55
2022-12-03T06:13:06.061Z,1.56
2022-12-03T06:15:43.989Z,1.53
2022-12-03T06:18:14.812Z,1.52
2022-12-03T06:20:45.004Z,1.46
2022-12-03T06:23:15.477Z,1.48
2022-12-03T06:25:45.620Z,1.45
2022-12-03T06:28:16.002Z,1.59
2022-12-03T06:30:50.096Z,1.57
2022-12-03T06:33:20.355Z,1.55
2022-12-03T06:35:58.655Z,1.54
2022-12-03T06:38:28.874Z,1.53
2022-12-03T06:40:59.120Z,1.51
2022-12-03T06:43:31.085Z,1.62
2022-12-03T06:46:03.842Z,1.58
2022-12-03T06:48:34.380Z,1.54
2022-12-03T06:51:04.667Z,1.51
2022-12-03T06:53:34.757Z,1.57
2022-12-03T06:56:04.841Z,1.41
2022-12-03T06:58:35.074Z,1.36
2022-12-03T07:01:09.313Z,1.37
2022-12-03T07:03:39.907Z,1.24
2022-12-03T07:06:10.186Z,1.34
2022-12-03T07:08:40.362Z,1.41
2022-12-03T07:11:30.971Z,1.43
2022-12-03T07:14:05.451Z,1.43
2022-12-03T07:16:39.092Z,1.44
2022-12-03T07:19:09.852Z,1.43
2022-12-03T07:21:40.095Z,1.33
2022-12-03T07:24:11.020Z,1.37
2022-12-03T07:26:41.849Z,1.32
2022-12-03T07:29:11.846Z,1.31
2022-12-03T07:31:44.904Z,1.31
2022-12-03T07:34:15.226Z,1.24
2022-12-03T07:36:45.513Z,1.38
2022-12-03T07:39:15.979Z,1.43
2022-12-03T07:41:46.196Z,1.37
2022-12-03T07:44:16.371Z,1.50
2022-12-03T07:46:49.322Z,1.52
2022-12-03T07:49:19.556Z,1.56
2022-12-03T07:51:54.391Z,1.68
2022-12-03T07:54:24.650Z,1.68
2022-12-03T07:57:00.887Z,1.66
2022-12-03T07:59:32.337Z,1.57
2022-12-03T08:02:05.238Z,1.57
2022-12-03T08:04:35.628Z,1.40
2022-12-03T08:07:06.281Z,1.49
2022-12-03T08:09:36.483Z,1.53
2022-12-03T08:12:17.888Z,1.67
2022-12-03T08:14:48.402Z,1.57
2022-12-03T08:17:22.181Z,1.66
2022-12-03T08:19:52.978Z,1.63
2022-12-03T08:22:23.316Z,1.71
2022-12-03T08:24:53.803Z,1.82
2022-12-03T08:27:25.948Z,1.83
2022-12-03T08:30:02.668Z,1.82
2022-12-03T08:32:37.116Z,1.79
2022-12-03T08:35:14.877Z,1.80
2022-12-03T08:37:45.851Z,1.85
2022-12-03T08:40:26.115Z,1.83
2022-12-03T08:42:57.390Z,1.91
2022-12-03T08:45:44.965Z,1.95
2022-12-03T08:48:37.311Z,1.93
2022-12-03T08:51:16.406Z,2.01
2022-12-03T08:53:49.976Z,1.83
2022-12-03T08:56:25.306Z,1.93
2022-12-03T08:58:57.476Z,1.91
2022-12-03T09:01:35.950Z,1.88
2022-12-03T09:04:23.087Z,1.95
2022-12-03T09:06:53.802Z,1.93
2022-12-03T09:09:24.990Z,2.04
2022-12-03T09:11:55.733Z,2.07
2022-12-03T09:14:26.304Z,1.97
2022-12-03T09:16:56.875Z,1.99
2022-12-03T09:19:31.354Z,2.07
2022-12-03T09:22:02.127Z,2.09
2022-12-03T09:24:32.523Z,2.05
2022-12-03T09:27:02.707Z,2.08
2022-12-03T09:29:32.860Z,2.09
2022-12-03T09:32:03.401Z,2.23
2022-12-03T09:34:36.619Z,2.18
2022-12-03T09:37:06.683Z,2.18
2022-12-03T09:39:36.894Z,2.14
2022-12-03T09:42:08.608Z,2.11
2022-12-03T09:44:40.539Z,2.17
2022-12-03T09:47:11.649Z,2.27
2022-12-03T09:49:46.761Z,2.22
2022-12-03T09:52:24.926Z,2.07
2022-12-03T09:54:57.098Z,2.14
2022-12-03T09:57:27.987Z,2.20
2022-12-03T09:59:58.968Z,2.38
2022-12-03T10:02:34.462Z,2.47
2022-12-03T10:05:07.786Z,2.40
2022-12-03T10:07:38.184Z,2.50
2022-12-03T10:10:11.143Z,2.49
2022-12-03T10:12:41.342Z,2.41
2022-12-03T10:15:16.137Z,2.48
2022-12-03T10:17:51.274Z,2.62
2022-12-03T10:20:26.780Z,2.59
2022-12-03T10:22:56.803Z,2.64
2022-12-03T10:25:27.122Z,2.71
2022-12-03T10:28:02.936Z,2.67
2022-12-03T10:30:38.849Z,2.77
2022-12-03T10:33:18.999Z,2.86
2022-12-03T10:35:52.081Z,2.73
2022-12-03T10:38:26.803Z,2.89
2022-12-03T10:40:56.897Z,2.90
2022-12-03T10:43:28.835Z,2.94
2022-12-03T10:46:15.414Z,3.12
2022-12-03T10:48:45.506Z,3.07
2022-12-03T10:51:23.344Z,3.01
2022-12-03T10:53:54.656Z,3.14
2022-12-03T10:56:29.031Z,3.14
2022-12-03T10:59:00.020Z,3.29
2022-12-03T11:01:30.254Z,3.38
2022-12-03T11:04:06.337Z,3.42
2022-12-03T11:06:39.669Z,3.40
2022-12-03T11:09:19.857Z,3.39
2022-12-03T11:11:50.964Z,3.46
2022-12-03T11:15:06.389Z,3.46
2022-12-03T11:17:51.630Z,3.48
2022-12-03T11:20:51.779Z,3.45
2022-12-03T11:23:59.286Z,3.39
2022-12-03T11:26:59.209Z,3.42
2022-12-03T11:29:54.003Z,3.40
2022-12-03T11:33:09.702Z,3.42
2022-12-03T11:36:04.620Z,3.49
2022-12-03T11:38:56.270Z,3.43
2022-12-03T11:41:30.007Z,3.41
2022-12-03T11:44:31.939Z,3.34
2022-12-03T11:47:10.789Z,3.32
2022-12-03T11:49:50.899Z,3.25
2022-12-03T11:52:36.492Z,3.44
2022-12-03T11:55:20.961Z,3.43
2022-12-03T11:57:51.219Z,3.60
2022-12-03T12:00:25.765Z,3.61
2022-12-03T12:02:57.540Z,3.61
2022-12-03T12:05:33.228Z,3.69
2022-12-03T12:08:05.378Z,3.88
2022-12-03T12:10:49.815Z,3.81
2022-12-03T12:13:54.722Z,3.74
2022-12-03T12:16:46.066Z,3.83
2022-12-03T12:19:32.552Z,3.91
2022-12-03T12:22:21.944Z,3.88
2022-12-03T12:24:54.668Z,3.91
2022-12-03T12:27:37.965Z,4.03
2022-12-03T12:30:16.152Z,4.02
2022-12-03T12:32:50.477Z,4.10
2022-12-03T12:35:22.518Z,4.08
2022-12-03T12:38:17.993Z,4.03
2022-12-03T12:40:50.576Z,4.08
2022-12-03T12:43:29.953Z,4.06
2022-12-03T12:46:45.557Z,4.07
2022-12-03T12:49:03.009Z,4.05
2022-12-03T12:51:33.383Z,4.18
2022-12-03T12:54:05.337Z,4.15
2022-12-03T12:56:36.399Z,4.23
2022-12-03T12:59:16.089Z,4.31
2022-12-03T13:01:47.980Z,4.37
2022-12-03T13:04:20.932Z,4.43
2022-12-03T13:06:52.679Z,4.33
2022-12-03T13:09:25.359Z,4.31
2022-12-03T13:11:57.219Z,4.19
2022-12-03T13:14:34.497Z,4.21
2022-12-03T13:17:14.052Z,4.21
2022-12-03T13:19:49.414Z,4.26
2022-12-03T13:22:25.884Z,4.11
2022-12-03T13:24:59.502Z,4.04
2022-12-03T13:27:32.537Z,4.11
2022-12-03T13:30:12.221Z,4.05
2022-12-03T13:32:45.436Z,4.03
2022-12-03T13:35:18.899Z,4.00
2022-12-03T13:37:49.078Z,4.03
2022-12-03T13:40:30.733Z,4.01
2022-12-03T13:43:00.845Z,4.04
2022-12-03T13:45:40.720Z,4.06
2022-12-03T13:48:22.289Z,4.02
2022-12-03T13:50:53.843Z,3.93
2022-12-03T13:53:26.293Z,3.94
2022-12-03T13:56:01.373Z,3.92
2022-12-03T13:58:31.775Z,3.92
2022-12-03T14:01:05.743Z,3.86
2022-12-03T14:03:36.056Z,3.82
2022-12-03T14:06:06.716Z,3.81
2022-12-03T14:08:37.432Z,3.82
2022-12-03T14:11:08.236Z,3.76
2022-12-03T14:13:38.556Z,3.72
2022-12-03T14:16:12.053Z,3.71
2022-12-03T14:18:42.168Z,3.69
2022-12-03T14:21:12.240Z,3.64
2022-12-03T14:23:42.258Z,3.59
2022-12-03T14:26:12.467Z,3.61
2022-12-03T14:28:42.675Z,3.52
2022-12-03T14:31:15.744Z,3.49
2022-12-03T14:33:46.274Z,3.44
2022-12-03T14:36:16.620Z,3.49
2022-12-03T14:38:46.686Z,3.39
2022-12-03T14:41:29.123Z,3.34
2022-12-03T14:43:59.182Z,3.28
2022-12-03T14:46:32.195Z,3.28
2022-12-03T14:49:02.472Z,3.19
2022-12-03T14:51:34.544Z,3.22
2022-12-03T14:54:04.929Z,3.17
2022-12-03T14:56:35.149Z,3.07
2022-12-03T14:59:05.209Z,3.01
2022-12-03T15:01:38.521Z,2.95
2022-12-03T15:04:09.297Z,2.91
2022-12-03T15:06:39.536Z,2.84
2022-12-03T15:09:10.048Z,2.77
2022-12-03T15:11:45.767Z,2.72
2022-12-03T15:14:16.336Z,2.65
2022-12-03T15:16:49.378Z,2.62
2022-12-03T15:19:20.067Z,2.60
2022-12-03T15:21:51.432Z,2.56
2022-12-03T15:24:21.869Z,2.50
2022-12-03T15:26:52.452Z,2.49
2022-12-03T15:29:23.127Z,2.46
2022-12-03T15:31:59.435Z,2.41
2022-12-03T15:34:29.685Z,2.35
2022-12-03T15:37:00.036Z,2.29
2022-12-03T15:39:30.095Z,2.34
2022-12-03T15:42:00.106Z,2.28
2022-12-03T15:44:30.604Z,2.26
2022-12-03T15:47:03.776Z,2.33
2022-12-03T15:49:33.845Z,2.27
2022-12-03T15:52:04.769Z,2.31
2022-12-03T15:54:35.010Z,2.30
2022-12-03T15:57:05.254Z,2.28
2022-12-03T15:59:35.497Z,2.25
2022-12-03T16:02:08.433Z,2.21
2022-12-03T16:04:38.751Z,2.22
2022-12-03T16:07:09.669Z,2.32
2022-12-03T16:09:39.876Z,2.46
2022-12-03T16:12:10.226Z,2.47
2022-12-03T16:14:41.614Z,2.65
2022-12-03T16:17:14.723Z,2.60
2022-12-03T16:19:48.007Z,2.63
2022-12-03T16:22:20.126Z,2.64
2022-12-03T16:24:50.180Z,2.72
2022-12-03T16:27:25.330Z,2.65
2022-12-03T16:29:57.195Z,2.68
2022-12-03T16:32:32.935Z,2.68
2022-12-03T16:35:04.779Z,2.66
2022-12-03T16:37:35.304Z,2.64
2022-12-03T16:40:05.682Z,2.60
2022-12-03T16:42:37.360Z,2.59
2022-12-03T16:45:34.391Z,2.55
2022-12-03T16:48:07.841Z,2.52
2022-12-03T16:50:38.436Z,2.51
2022-12-03T16:53:08.707Z,2.58
2022-12-03T16:55:38.909Z,2.54
2022-12-03T16:58:09.752Z,2.51
2022-12-03T17:00:43.358Z,2.56
2022-12-03T17:03:18.011Z,2.66
2022-12-03T17:05:48.624Z,2.70
2022-12-03T17:08:20.018Z,2.79
2022-12-03T17:10:50.430Z,2.76
2022-12-03T17:13:21.295Z,2.76
2022-12-03T17:15:54.450Z,2.79
2022-12-03T17:18:27.524Z,2.75
2022-12-03T17:20:57.832Z,2.76
2022-12-03T17:23:27.974Z,2.79
2022-12-03T17:25:58.447Z,2.73
2022-12-03T17:28:33.453Z,2.75
2022-12-03T17:31:06.823Z,2.74
2022-12-03T17:33:43.454Z,2.71
2022-12-03T17:36:13.963Z,2.71
2022-12-03T17:38:44.104Z,2.74
2022-12-03T17:41:14.196Z,2.72
2022-12-03T17:43:44.755Z,2.67
2022-12-03T17:46:15.400Z,2.64
2022-12-03T17:48:48.203Z,2.61
2022-12-03T17:51:19.520Z,2.55
2022-12-03T17:53:49.602Z,2.51
2022-12-03T17:56:20.288Z,2.50
2022-12-03T17:58:50.350Z,2.48
2022-12-03T18:01:20.825Z,2.48
2022-12-03T18:03:54.650Z,2.48
2022-12-03T18:06:26.468Z,2.44
2022-12-03T18:08:59.749Z,2.36
2022-12-03T18:11:30.138Z,2.28
2022-12-03T18:14:01.504Z,2.24
2022-12-03T18:16:35.052Z,2.19
2022-12-03T18:19:08.236Z,2.19
2022-12-03T18:21:49.866Z,2.14
2022-12-03T18:24:21.497Z,2.11
2022-12-03T18:26:54.350Z,2.06
2022-12-03T18:29:24.426Z,2.04
2022-12-03T18:31:54.921Z,1.98
2022-12-03T18:34:27.952Z,1.97
2022-12-03T18:36:58.087Z,1.96
2022-12-03T18:39:30.857Z,2.02
2022-12-03T18:42:00.994Z,1.95
2022-12-03T18:44:31.384Z,1.90
2022-12-03T18:47:02.768Z,1.87
2022-12-03T18:49:36.967Z,1.88
2022-12-03T18:52:08.401Z,1.90
2022-12-03T18:54:38.670Z,1.89
2022-12-03T18:57:09.005Z,1.89
2022-12-03T18:59:40.905Z,1.90
2022-12-03T19:02:32.456Z,1.91
2022-12-03T19:05:10.562Z,1.91
2022-12-03T19:07:40.914Z,1.91
2022-12-03T19:10:12.503Z,1.94
2022-12-03T19:12:42.614Z,2.00
2022-12-03T19:15:13.408Z,2.01
2022-12-03T19:17:47.206Z,2.02
2022-12-03T19:20:20.322Z,2.03
2022-12-03T19:22:53.207Z,2.09
2022-12-03T19:25:23.865Z,2.12
2022-12-03T19:27:57.857Z,2.10
2022-12-03T19:30:29.614Z,2.12
2022-12-03T19:33:06.709Z,2.15
2022-12-03T19:35:42.350Z,2.10
2022-12-03T19:38:12.420Z,2.11
2022-12-03T19:40:42.451Z,2.08
2022-12-03T19:43:12.856Z,2.07
2022-12-03T19:45:45.843Z,2.01
2022-12-03T19:48:17.505Z,2.00
2022-12-03T19:51:07.872Z,1.98
2022-12-03T19:53:45.536Z,1.98
2022-12-03T19:56:17.750Z,1.99
2022-12-03T19:58:49.293Z,2.01
2022-12-03T20:01:23.585Z,2.02
2022-12-03T20:03:55.788Z,2.02
2022-12-03T20:06:30.984Z,1.98
2022-12-03T20:09:02.779Z,1.94
2022-12-03T20:11:39.500Z,1.95
2022-12-03T20:14:11.796Z,1.98
2022-12-03T20:16:42.188Z,2.06
2022-12-03T20:19:14.940Z,2.12
2022-12-03T20:21:52.399Z,2.09
2022-12-03T20:24:23.499Z,2.13
2022-12-03T20:26:56.553Z,2.20
2022-12-03T20:29:29.688Z,2.15
2022-12-03T20:32:04.232Z,2.17
2022-12-03T20:34:35.985Z,2.18
2022-12-03T20:37:10.274Z,2.19
2022-12-03T20:39:40.417Z,2.16
2022-12-03T20:42:12.014Z,2.12
2022-12-03T20:44:42.055Z,2.10
2022-12-03T20:47:12.221Z,2.04
2022-12-03T20:49:42.383Z,2.00
2022-12-03T20:52:15.781Z,1.98
2022-12-03T20:54:46.193Z,1.91
2022-12-03T20:57:19.835Z,1.92
2022-12-03T20:59:50.171Z,1.87
2022-12-03T21:02:20.808Z,1.93
2022-12-03T21:04:51.158Z,1.91
2022-12-03T21:07:26.932Z,1.89
2022-12-03T21:09:57.438Z,1.88
2022-12-03T21:12:27.877Z,1.87
2022-12-03T21:14:58.094Z,1.82
2022-12-03T21:17:28.649Z,1.86
2022-12-03T21:20:00.028Z,1.81
2022-12-03T21:22:32.775Z,1.75
2022-12-03T21:25:03.497Z,1.76
2022-12-03T21:27:34.100Z,1.72
2022-12-03T21:30:04.232Z,1.77
2022-12-03T21:32:34.521Z,1.76
2022-12-03T21:35:04.780Z,1.73
2022-12-03T21:37:37.722Z,1.73
2022-12-03T21:40:09.674Z,1.71
2022-12-03T21:42:39.925Z,1.69
2022-12-03T21:45:11.638Z,1.69
2022-12-03T21:47:42.421Z,1.67
2022-12-03T21:50:14.225Z,1.69
2022-12-03T21:52:47.070Z,1.69
2022-12-03T21:55:17.117Z,1.68
2022-12-03T21:57:47.388Z,1.69
2022-12-03T22:00:18.873Z,1.67
2022-12-03T22:02:49.190Z,1.67
2022-12-03T22:05:20.137Z,1.65
2022-12-03T22:07:53.247Z,1.63
2022-12-03T22:10:23.824Z,1.63
2022-12-03T22:12:54.080Z,1.65
2022-12-03T22:15:24.903Z,1.65
2022-12-03T22:17:55.820Z,1.65
2022-12-03T22:20:26.054Z,1.67
2022-12-03T22:22:59.669Z,1.71
2022-12-03T22:25:30.954Z,1.62
2022-12-03T22:28:01.301Z,1.66
2022-12-03T22:30:37.391Z,1.63
2022-12-03T22:33:08.572Z,1.61
2022-12-03T22:35:39.407Z,1.62
2022-12-03T22:38:15.114Z,1.62
2022-12-03T22:40:47.208Z,1.56
2022-12-03T22:43:17.340Z,1.55
2022-12-03T22:45:48.057Z,1.54
2022-12-03T22:48:18.932Z,1.56
2022-12-03T22:50:50.300Z,1.63
2022-12-03T22:53:23.367Z,1.60
2022-12-03T22:55:58.838Z,1.65
2022-12-03T22:58:31.509Z,1.60
2022-12-03T23:01:03.046Z,1.67
2022-12-03T23:03:34.224Z,1.70
2022-12-03T23:06:04.332Z,1.65
2022-12-03T23:08:37.136Z,1.62
2022-12-03T23:11:07.355Z,1.61
2022-12-03T23:13:37.873Z,1.54
2022-12-03T23:16:09.187Z,1.57
2022-12-03T23:18:39.540Z,1.60
2022-12-03T23:21:10.167Z,1.58
2022-12-03T23:23:43.571Z,1.63
2022-12-03T23:26:17.373Z,1.62
2022-12-03T23:28:49.136Z,1.63
2022-12-03T23:31:22.175Z,1.70
2022-12-03T23:33:53.817Z,1.67
2022-12-03T23:36:25.484Z,1.65
2022-12-03T23:39:10.596Z,1.69
2022-12-03T23:41:40.743Z,1.67
2022-12-03T23:44:10.908Z,1.72
2022-12-03T23:46:43.021Z,1.65
2022-12-03T23:49:13.441Z,1.66
2022-12-03T23:51:43.780Z,1.60
2022-12-03T23:54:16.789Z,1.70
2022-12-03T23:56:46.950Z,1.65
2022-12-03T23:59:17.144Z,1.60
